Time;durP1;ratioP1;P1;durP2;ratioP2;P2;SDS_P1;SDS_P2;PMS_P1;PMS_P2;Temp;Humidity;BMP_temperature;BMP_pressure;BME280_temperature;BME280_humidity;BME280_pressure;Samples;Min_cycle;Max_cycle;Signal;HPM_P1;HPM_P2
2022/09/25 00:00:41;;;;;;;8.10;2.80;;;8.20;99.90;;;;;;5058944;28;20053;-80
2022/09/25 00:03:07;;;;;;;5.10;2.50;;;8.10;99.90;;;;;;5060078;28;20073;-78
2022/09/25 00:05:52;;;;;;;9.93;2.50;;;8.10;99.90;;;;;;5087810;28;20040;-80
2022/09/25 00:08:18;;;;;;;9.93;3.30;;;8.00;99.90;;;;;;5073051;28;20045;-79
2022/09/25 00:10:47;;;;;;;9.07;2.60;;;8.10;99.90;;;;;;5058315;28;20051;-81
2022/09/25 00:13:13;;;;;;;6.70;2.67;;;8.00;99.90;;;;;;5072094;28;20440;-82
2022/09/25 00:15:46;;;;;;;9.02;2.60;;;8.00;99.90;;;;;;5074156;28;20084;-82
2022/09/25 00:18:11;;;;;;;6.47;2.50;;;8.10;99.90;;;;;;5070018;28;20040;-80
2022/09/25 00:20:37;;;;;;;10.35;2.85;;;8.00;99.90;;;;;;5062347;28;20547;-82
2022/09/25 00:23:02;;;;;;;5.50;2.50;;;7.90;99.90;;;;;;5045760;28;20442;-80
2022/09/25 00:25:28;;;;;;;7.20;2.50;;;7.80;99.90;;;;;;5064974;28;20046;-81
2022/09/25 00:27:54;;;;;;;6.68;2.58;;;7.90;99.90;;;;;;5071170;28;20051;-80
2022/09/25 00:30:20;;;;;;;8.05;2.60;;;7.90;99.90;;;;;;5052510;28;20040;-81
2022/09/25 00:32:46;;;;;;;6.32;2.40;;;7.80;99.90;;;;;;5049413;28;20153;-80
2022/09/25 00:35:12;;;;;;;6.63;2.30;;;7.80;99.90;;;;;;5048320;28;20063;-81
2022/09/25 00:37:37;;;;;;;9.32;2.65;;;7.70;99.90;;;;;;5063245;28;20028;-82
2022/09/25 00:40:04;;;;;;;9.25;2.28;;;7.80;99.90;;;;;;5060257;28;20115;-80
2022/09/25 00:42:31;;;;;;;3.40;2.03;;;7.70;99.90;;;;;;5042240;28;20048;-81
2022/09/25 00:45:00;;;;;;;9.68;2.38;;;7.70;99.90;;;;;;5063035;28;20046;-81
2022/09/25 00:47:37;;;;;;;13.07;2.15;;;7.70;99.90;;;;;;5059289;28;20041;-81
2022/09/25 00:50:15;;;;;;;4.40;2.00;;;7.70;99.90;;;;;;5064686;28;20496;-82
2022/09/25 00:52:41;;;;;;;6.22;2.13;;;7.70;99.90;;;;;;5065175;28;20040;-82
2022/09/25 00:55:11;;;;;;;4.25;1.77;;;7.70;99.90;;;;;;5067975;28;20037;-80
2022/09/25 00:57:39;;;;;;;4.35;2.13;;;7.70;99.90;;;;;;5071824;28;20038;-82
2022/09/25 01:00:09;;;;;;;3.60;1.95;;;7.70;99.90;;;;;;5044580;28;20916;-81
2022/09/25 01:02:38;;;;;;;5.72;1.98;;;7.60;99.90;;;;;;5068058;28;20051;-81
2022/09/25 01:05:11;;;;;;;7.25;1.95;;;7.60;99.90;;;;;;5062919;28;20047;-81
2022/09/25 01:07:39;;;;;;;6.38;2.28;;;7.60;99.90;;;;;;5050700;28;20058;-80
2022/09/25 01:10:06;;;;;;;7.40;2.20;;;7.60;99.90;;;;;;5064193;28;20048;-80
2022/09/25 01:12:37;;;;;;;11.32;2.25;;;7.60;99.90;;;;;;5047723;28;20120;-80
2022/09/25 01:15:06;;;;;;;8.00;2.28;;;7.50;99.90;;;;;;5048406;28;20371;-79
2022/09/25 01:17:40;;;;;;;4.97;2.10;;;7.50;99.90;;;;;;5049115;28;20071;-80
2022/09/25 01:20:23;;;;;;;8.02;2.08;;;7.50;99.90;;;;;;5064756;28;20122;-80
2022/09/25 01:22:54;;;;;;;5.45;2.20;;;7.40;99.90;;;;;;5042499;28;20071;-80
2022/09/25 01:25:48;;;;;;;4.20;2.00;;;7.50;99.90;;;;;;5050198;28;20044;-80
2022/09/25 01:28:39;;;;;;;5.63;2.10;;;7.40;99.90;;;;;;5054845;28;20317;-79
2022/09/25 01:31:16;;;;;;;7.95;2.08;;;7.40;99.90;;;;;;5049314;28;20050;-80
2022/09/25 01:33:57;;;;;;;6.20;2.22;;;7.40;99.90;;;;;;5049841;28;20101;-80
2022/09/25 01:36:28;;;;;;;5.55;2.40;;;7.40;99.90;;;;;;5049632;28;20403;-81
2022/09/25 01:39:27;;;;;;;5.65;2.30;;;7.30;99.90;;;;;;5046857;28;20135;-81
2022/09/25 01:42:16;;;;;;;6.13;2.55;;;7.30;99.90;;;;;;5040623;28;20048;-81
2022/09/25 01:44:48;;;;;;;9.73;2.58;;;7.30;99.90;;;;;;5063690;28;20387;-81
2022/09/25 01:47:24;;;;;;;8.90;2.63;;;7.30;99.90;;;;;;5062888;28;20048;-81
2022/09/25 01:49:55;;;;;;;8.57;2.22;;;7.30;99.90;;;;;;5044940;28;20072;-80
2022/09/25 01:52:26;;;;;;;4.22;2.22;;;7.30;99.90;;;;;;5066419;28;20044;-81
2022/09/25 01:55:30;;;;;;;7.22;2.33;;;7.20;99.90;;;;;;5062171;28;20081;-81
2022/09/25 01:58:12;;;;;;;4.22;1.90;;;7.20;99.90;;;;;;4985303;28;20056;-81
2022/09/25 02:00:42;;;;;;;5.78;2.20;;;7.20;99.90;;;;;;5010941;28;20045;-81
2022/09/25 02:03:14;;;;;;;6.03;2.00;;;7.10;99.90;;;;;;5009158;28;20044;-81
2022/09/25 02:05:48;;;;;;;8.02;2.10;;;7.10;99.90;;;;;;5003239;28;20041;-81
2022/09/25 02:08:21;;;;;;;6.85;2.17;;;7.10;99.90;;;;;;5005915;28;20064;-80
2022/09/25 02:10:54;;;;;;;6.20;2.00;;;7.10;99.90;;;;;;4994270;28;20171;-80
2022/09/25 02:13:22;;;;;;;2.90;1.70;;;7.00;99.90;;;;;;4993380;28;20053;-81
2022/09/25 02:15:57;;;;;;;6.97;1.90;;;7.00;99.90;;;;;;5003436;28;20508;-81
2022/09/25 02:21:37;;;;;;;5.32;1.92;;;7.00;99.90;;;;;;5005002;28;20576;-82
2022/09/25 02:24:23;;;;;;;4.13;1.80;;;7.00;99.90;;;;;;5003946;28;20204;-82
2022/09/25 02:26:51;;;;;;;4.65;1.75;;;7.10;99.90;;;;;;4987590;28;20332;-81
2022/09/25 02:29:18;;;;;;;5.00;1.60;;;7.00;99.90;;;;;;5004141;28;20409;-80
2022/09/25 02:31:47;;;;;;;5.80;1.70;;;7.00;99.90;;;;;;4982446;28;20045;-82
2022/09/25 02:34:13;;;;;;;5.55;1.50;;;6.90;99.90;;;;;;5049748;28;20063;-81
2022/09/25 02:36:38;;;;;;;2.78;1.48;;;6.80;99.90;;;;;;5066868;28;20043;-82
2022/09/25 02:39:07;;;;;;;2.67;1.42;;;6.90;99.90;;;;;;5051016;28;20348;-80
2022/09/25 02:41:42;;;;;;;4.53;1.20;;;6.80;99.90;;;;;;5048658;28;20040;-81
2022/09/25 02:44:38;;;;;;;2.90;1.25;;;6.80;99.90;;;;;;5068951;28;20119;-79
2022/09/25 02:47:33;;;;;;;6.22;1.70;;;6.80;99.90;;;;;;4966557;28;20525;-80
2022/09/25 02:50:23;;;;;;;7.38;1.50;;;6.80;99.90;;;;;;4970416;28;20050;-79
2022/09/25 02:53:21;;;;;;;7.20;1.48;;;6.80;99.90;;;;;;4971943;28;20069;-80
2022/09/25 02:56:01;;;;;;;13.98;1.70;;;6.80;99.90;;;;;;4988574;28;20082;-80
2022/09/25 02:58:32;;;;;;;3.33;1.50;;;6.80;99.90;;;;;;4970630;28;20054;-81
2022/09/25 03:01:02;;;;;;;4.10;1.48;;;6.70;99.90;;;;;;4958638;28;20104;-81
2022/09/25 03:03:27;;;;;;;4.55;1.40;;;6.80;99.90;;;;;;4973217;28;20074;-80
2022/09/25 03:05:57;;;;;;;6.43;1.45;;;6.80;99.90;;;;;;4996680;28;20718;-81
2022/09/25 03:08:38;;;;;;;9.52;1.95;;;6.70;99.90;;;;;;4975008;28;20038;-80
2022/09/25 03:11:06;;;;;;;9.30;1.50;;;6.70;99.90;;;;;;4971680;28;20145;-81
2022/09/25 03:13:32;;;;;;;3.45;1.23;;;6.80;99.90;;;;;;4967015;28;20063;-81
2022/09/25 03:16:04;;;;;;;4.50;1.33;;;6.70;99.90;;;;;;4968274;28;20120;-81
2022/09/25 03:18:30;;;;;;;5.10;1.45;;;6.80;99.90;;;;;;4970219;28;20038;-80
2022/09/25 03:20:57;;;;;;;7.03;1.50;;;6.90;99.90;;;;;;4954022;28;20038;-81
2022/09/25 03:23:23;;;;;;;4.88;1.40;;;6.90;99.90;;;;;;4986630;28;20122;-80
2022/09/25 03:25:49;;;;;;;9.93;2.13;;;6.90;99.90;;;;;;5034167;28;20036;-79
2022/09/25 03:28:14;;;;;;;7.35;2.00;;;7.00;99.90;;;;;;5050591;28;20399;-78
2022/09/25 03:30:40;;;;;;;5.75;1.70;;;7.10;99.90;;;;;;5035789;28;20044;-81
2022/09/25 03:33:09;;;;;;;5.28;1.52;;;7.10;99.90;;;;;;5051354;28;20037;-81
2022/09/25 03:35:35;;;;;;;4.30;1.58;;;7.10;99.90;;;;;;5034295;28;20159;-82
2022/09/25 03:38:01;;;;;;;7.47;1.95;;;7.20;99.90;;;;;;5047448;28;20044;-81
2022/09/25 03:40:27;;;;;;;5.50;1.70;;;7.00;99.90;;;;;;5029054;28;20037;-82
2022/09/25 03:42:52;;;;;;;7.88;1.95;;;7.10;99.90;;;;;;5027799;28;20040;-81
2022/09/25 03:45:18;;;;;;;8.00;2.25;;;7.10;99.90;;;;;;5048871;28;20112;-82
2022/09/25 03:47:45;;;;;;;7.10;2.10;;;7.20;99.90;;;;;;5047520;28;20235;-81
2022/09/25 03:50:11;;;;;;;6.90;2.00;;;7.20;99.90;;;;;;5029953;28;20822;-82
2022/09/25 03:52:38;;;;;;;9.80;2.10;;;7.20;99.90;;;;;;5029099;28;20141;-81
2022/09/25 03:55:04;;;;;;;5.63;2.00;;;7.10;99.90;;;;;;5045723;28;20036;-82
2022/09/25 03:57:30;;;;;;;7.18;1.90;;;7.00;99.90;;;;;;5029371;28;20544;-82
2022/09/25 04:00:00;;;;;;;4.90;1.80;;;7.20;99.90;;;;;;5049898;28;20178;-82
2022/09/25 04:02:27;;;;;;;3.28;1.60;;;6.90;99.90;;;;;;5055010;28;20080;-81
2022/09/25 04:04:53;;;;;;;6.57;1.60;;;6.90;99.90;;;;;;5050176;28;20125;-81
2022/09/25 04:07:23;;;;;;;9.68;1.95;;;6.80;99.90;;;;;;5055136;28;20044;-80
2022/09/25 04:09:49;;;;;;;6.65;1.90;;;6.70;99.90;;;;;;5054377;28;20060;-81
2022/09/25 04:12:15;;;;;;;7.50;1.98;;;6.70;99.90;;;;;;5034052;28;20750;-81
2022/09/25 04:14:44;;;;;;;8.20;2.00;;;6.70;99.90;;;;;;5038959;28;20515;-82
2022/09/25 04:17:10;;;;;;;7.93;1.73;;;6.60;99.90;;;;;;5073786;28;20051;-82
2022/09/25 04:19:36;;;;;;;6.07;1.80;;;6.60;99.90;;;;;;5068512;28;20049;-81
2022/09/25 04:22:02;;;;;;;8.18;1.90;;;6.60;99.90;;;;;;5055487;28;20132;-82
2022/09/25 04:27:12;;;;;;;15.30;2.10;;;6.40;99.90;;;;;;5070016;28;20072;-82
2022/09/25 04:29:37;;;;;;;7.15;1.92;;;6.50;99.90;;;;;;5054126;28;20066;-81
2022/09/25 04:34:47;;;;;;;5.53;1.70;;;6.40;99.90;;;;;;5071953;28;20144;-79
2022/09/25 04:37:14;;;;;;;4.43;1.52;;;6.40;99.90;;;;;;5056003;28;20150;-81
2022/09/25 04:39:40;;;;;;;9.23;1.80;;;6.30;99.90;;;;;;5067695;28;20151;-81
2022/09/25 04:42:06;;;;;;;3.20;1.60;;;6.30;99.90;;;;;;5052667;28;20119;-82
2022/09/25 04:44:31;;;;;;;7.32;1.75;;;6.40;99.90;;;;;;5053781;28;20119;-79
2022/09/25 04:46:57;;;;;;;3.38;1.45;;;6.40;99.90;;;;;;5052788;28;20454;-79
2022/09/25 04:49:23;;;;;;;6.57;1.45;;;6.30;99.90;;;;;;5053687;28;20114;-80
2022/09/25 04:51:48;;;;;;;5.45;1.60;;;6.30;99.90;;;;;;5048848;28;20051;-82
2022/09/25 04:54:15;;;;;;;3.13;1.42;;;6.20;99.90;;;;;;5073042;28;20044;-80
2022/09/25 04:56:43;;;;;;;6.03;1.50;;;6.20;99.90;;;;;;5057945;28;20040;-79
2022/09/25 04:59:10;;;;;;;5.03;1.60;;;6.30;99.90;;;;;;5075331;28;20395;-80
2022/09/25 05:01:36;;;;;;;5.63;1.77;;;6.30;99.90;;;;;;5053640;28;20035;-80
2022/09/25 05:04:01;;;;;;;5.78;1.80;;;6.20;99.90;;;;;;5090162;28;20036;-81
2022/09/25 05:06:28;;;;;;;6.38;1.85;;;6.10;99.90;;;;;;5068926;28;20040;-82
2022/09/25 05:08:55;;;;;;;4.68;1.77;;;6.30;99.90;;;;;;5038368;28;20048;-80
2022/09/25 05:11:21;;;;;;;4.35;1.60;;;6.40;99.90;;;;;;5048317;28;20135;-80
2022/09/25 05:13:51;;;;;;;7.75;1.80;;;6.50;99.90;;;;;;5040058;28;20098;-79
2022/09/25 05:16:17;;;;;;;11.95;2.08;;;6.40;99.90;;;;;;5054285;28;20063;-82
2022/09/25 05:18:43;;;;;;;4.32;1.80;;;6.50;99.90;;;;;;5054087;28;20040;-80
2022/09/25 05:21:09;;;;;;;8.82;1.90;;;6.40;99.90;;;;;;5037243;28;20040;-82
2022/09/25 05:23:34;;;;;;;5.82;1.70;;;6.40;99.90;;;;;;5053579;28;20032;-80
2022/09/25 05:26:01;;;;;;;9.27;2.00;;;6.30;99.90;;;;;;5037203;28;20474;-81
2022/09/25 05:28:27;;;;;;;8.00;2.10;;;6.30;99.90;;;;;;5054180;28;20116;-82
2022/09/25 05:30:53;;;;;;;5.25;1.67;;;6.30;99.90;;;;;;5058416;28;20048;-82
2022/09/25 05:33:20;;;;;;;6.65;2.00;;;6.30;99.90;;;;;;5061430;28;20043;-82
2022/09/25 05:35:45;;;;;;;4.25;1.63;;;6.30;99.90;;;;;;5050845;28;20052;-82
2022/09/25 05:38:14;;;;;;;6.07;2.13;;;6.30;99.90;;;;;;5081728;28;20044;-83
2022/09/25 05:40:40;;;;;;;6.68;1.95;;;6.30;99.90;;;;;;5037727;28;20032;-82
2022/09/25 05:43:06;;;;;;;5.30;1.90;;;6.40;99.90;;;;;;5037668;28;20130;-82
2022/09/25 05:45:33;;;;;;;9.38;2.15;;;6.40;99.90;;;;;;5055384;28;20044;-83
2022/09/25 05:48:07;;;;;;;13.48;2.22;;;6.40;99.90;;;;;;5052260;28;20506;-81
2022/09/25 05:50:33;;;;;;;12.60;2.45;;;6.50;99.90;;;;;;5054407;28;20043;-82
2022/09/25 05:53:00;;;;;;;5.93;2.08;;;6.50;99.90;;;;;;5043537;28;20037;-81
2022/09/25 05:55:26;;;;;;;11.00;2.33;;;6.60;99.90;;;;;;5053997;28;20032;-82
2022/09/25 05:57:52;;;;;;;11.57;2.80;;;6.80;99.90;;;;;;5034905;28;20132;-83
2022/09/25 06:00:18;;;;;;;12.43;2.70;;;6.90;99.90;;;;;;5053343;28;20111;-83
2022/09/25 06:02:43;;;;;;;6.95;2.25;;;7.00;99.90;;;;;;5035363;28;20086;-79
2022/09/25 06:06:05;;;;;;;11.75;2.65;;;6.90;99.90;;;;;;5037237;28;20029;-80
2022/09/25 06:08:31;;;;;;;8.48;2.55;;;7.10;99.90;;;;;;5037398;28;20488;-80
2022/09/25 06:10:58;;;;;;;9.70;3.03;;;7.10;99.90;;;;;;5033377;28;20493;-80
2022/09/25 06:13:24;;;;;;;10.43;3.00;;;7.10;99.90;;;;;;5041755;28;20043;-80
2022/09/25 06:15:51;;;;;;;14.98;3.33;;;7.20;99.90;;;;;;5042147;28;20043;-80
2022/09/25 06:18:20;;;;;;;12.93;2.60;;;7.30;99.90;;;;;;5032033;28;20060;-82
2022/09/25 06:20:46;;;;;;;14.40;2.78;;;7.40;99.90;;;;;;5045859;28;20109;-80
2022/09/25 06:23:12;;;;;;;8.00;2.40;;;7.40;99.90;;;;;;5032999;28;20040;-81
2022/09/25 06:25:38;;;;;;;8.80;2.45;;;7.40;99.90;;;;;;5033929;28;20041;-82
2022/09/25 06:28:05;;;;;;;7.10;2.20;;;7.40;99.90;;;;;;5032915;28;20048;-82
2022/09/25 06:30:34;;;;;;;12.88;3.17;;;7.40;99.90;;;;;;5038049;28;20051;-82
2022/09/25 06:33:00;;;;;;;8.40;2.63;;;7.50;99.90;;;;;;5047105;28;20040;-80
2022/09/25 06:35:28;;;;;;;7.15;2.35;;;7.50;99.90;;;;;;5067409;28;20041;-78
2022/09/25 06:37:58;;;;;;;7.65;2.65;;;7.60;99.90;;;;;;5052079;28;20467;-80
2022/09/25 06:40:28;;;;;;;9.80;2.78;;;7.70;99.90;;;;;;5053593;28;20403;-82
2022/09/25 06:43:01;;;;;;;9.27;2.50;;;7.80;99.90;;;;;;5071014;28;20059;-81
2022/09/25 06:45:28;;;;;;;13.10;2.95;;;7.90;99.90;;;;;;5050347;28;20102;-83
2022/09/25 06:48:03;;;;;;;11.15;3.00;;;8.00;99.90;;;;;;5022901;28;20092;-80
2022/09/25 06:50:45;;;;;;;11.20;2.83;;;8.00;99.90;;;;;;5063404;28;20052;-81
2022/09/25 06:53:12;;;;;;;14.18;3.35;;;8.10;99.90;;;;;;5040006;28;20055;-81
2022/09/25 06:55:38;;;;;;;12.80;2.88;;;8.20;99.90;;;;;;5053265;28;20041;-81
2022/09/25 06:58:07;;;;;;;7.53;3.17;;;8.30;99.90;;;;;;5052143;28;20517;-82
2022/09/25 07:00:33;;;;;;;9.52;2.97;;;8.40;99.90;;;;;;5051461;28;20053;-81
2022/09/25 07:05:47;;;;;;;11.88;2.85;;;8.80;99.90;;;;;;5069707;28;20044;-80
2022/09/25 07:08:15;;;;;;;7.63;2.70;;;8.70;99.90;;;;;;5032837;28;20565;-81
2022/09/25 07:10:48;;;;;;;9.55;2.65;;;8.90;99.90;;;;;;5052232;28;20044;-81
2022/09/25 07:13:16;;;;;;;12.93;2.42;;;8.90;99.90;;;;;;5047693;28;20512;-81
2022/09/25 07:15:42;;;;;;;10.85;2.70;;;9.10;99.90;;;;;;5046591;28;20050;-80
2022/09/25 07:18:07;;;;;;;12.00;2.85;;;9.20;99.90;;;;;;5093855;28;20072;-82
2022/09/25 07:21:03;;;;;;;8.80;2.50;;;9.50;99.90;;;;;;5072867;28;20067;-79
2022/09/25 07:23:30;;;;;;;12.32;2.55;;;9.60;99.90;;;;;;5053166;28;20040;-80
2022/09/25 07:26:02;;;;;;;16.27;2.60;;;9.80;99.90;;;;;;5056456;28;20105;-80
2022/09/25 07:28:28;;;;;;;9.82;2.50;;;10.10;99.90;;;;;;5051644;28;20063;-80
2022/09/25 07:30:54;;;;;;;16.52;2.50;;;10.30;99.90;;;;;;5053569;28;20471;-81
2022/09/25 07:33:23;;;;;;;13.90;2.47;;;10.60;99.90;;;;;;5052767;28;20092;-79
2022/09/25 07:35:51;;;;;;;10.02;2.60;;;10.80;99.90;;;;;;5083996;28;20039;-81
2022/09/25 07:38:17;;;;;;;6.15;2.22;;;10.90;99.90;;;;;;5069991;28;20177;-79
2022/09/25 07:40:43;;;;;;;13.45;2.22;;;11.20;99.90;;;;;;5054192;28;20043;-80
2022/09/25 07:43:09;;;;;;;12.93;2.25;;;11.40;99.90;;;;;;5055662;28;20391;-81
2022/09/25 07:45:35;;;;;;;13.15;4.10;;;11.50;99.90;;;;;;5071048;28;20051;-80
2022/09/25 07:48:02;;;;;;;8.73;2.08;;;11.90;99.90;;;;;;5068867;28;20114;-80
2022/09/25 07:50:29;;;;;;;11.32;2.08;;;11.80;99.90;;;;;;5070229;28;20067;-80
2022/09/25 07:52:54;;;;;;;5.00;0.85;;;11.90;99.90;;;;;;5050209;28;20044;-79
2022/09/25 07:55:21;;;;;;;3.65;0.90;;;11.90;99.90;;;;;;5069125;28;20041;-80
2022/09/25 07:57:49;;;;;;;5.90;1.10;;;12.10;99.90;;;;;;5052723;28;20044;-80
2022/09/25 08:00:15;;;;;;;3.67;0.82;;;12.20;99.90;;;;;;5049734;28;20572;-79
2022/09/25 08:02:41;;;;;;;4.10;0.80;;;12.20;99.90;;;;;;5042303;28;20487;-80
2022/09/25 08:05:08;;;;;;;5.78;1.00;;;12.20;99.90;;;;;;5072430;28;20040;-80
2022/09/25 08:07:33;;;;;;;4.68;0.90;;;12.30;99.90;;;;;;5055062;28;20481;-80
2022/09/25 08:09:59;;;;;;;5.88;0.73;;;12.40;99.90;;;;;;5046019;28;20068;-82
2022/09/25 08:12:26;;;;;;;2.53;0.68;;;12.40;99.90;;;;;;5067293;28;20479;-84
2022/09/25 08:14:51;;;;;;;4.35;0.88;;;12.50;99.90;;;;;;5068385;28;20055;-82
2022/09/25 08:17:18;;;;;;;3.58;0.90;;;12.60;99.90;;;;;;5075351;28;20109;-82
2022/09/25 08:19:44;;;;;;;5.95;1.13;;;12.60;99.90;;;;;;5055681;28;20036;-85
2022/09/25 08:22:10;;;;;;;3.58;1.45;;;12.80;99.90;;;;;;5071839;28;20403;-83
2022/09/25 08:24:36;;;;;;;6.57;1.20;;;13.00;99.90;;;;;;5071319;28;20121;-80
2022/09/25 08:27:03;;;;;;;9.27;1.25;;;13.00;99.90;;;;;;5071414;28;20378;-81
2022/09/25 08:29:29;;;;;;;7.18;1.30;;;13.00;99.90;;;;;;5071776;28;20611;-81
2022/09/25 08:31:55;;;;;;;6.90;1.00;;;12.70;99.90;;;;;;5066545;28;20440;-81
2022/09/25 08:34:22;;;;;;;7.68;1.27;;;12.60;99.90;;;;;;5066419;28;20048;-82
2022/09/25 08:36:49;;;;;;;5.45;1.13;;;12.20;99.90;;;;;;5062400;28;20109;-84
2022/09/25 08:39:15;;;;;;;7.05;1.10;;;12.30;99.90;;;;;;5063761;28;20040;-82
2022/09/25 08:41:53;;;;;;;10.07;1.58;;;12.10;99.90;;;;;;5049612;28;20438;-81
2022/09/25 08:44:23;;;;;;;9.13;1.15;;;12.10;99.90;;;;;;5064530;28;20056;-80
2022/09/25 08:49:44;;;;;;;9.52;1.42;;;12.10;99.90;;;;;;4974911;28;20054;-81
2022/09/25 08:58:41;;;;;;;7.60;1.42;;;11.90;99.90;;;;;;4968285;28;20046;-80
2022/09/25 09:01:12;;;;;;;5.60;1.02;;;11.80;99.90;;;;;;4950277;28;20075;-79
2022/09/25 09:03:56;;;;;;;8.00;1.45;;;11.70;99.90;;;;;;4965687;28;20350;-80
2022/09/25 09:06:25;;;;;;;5.55;1.13;;;11.70;99.90;;;;;;4981239;28;20051;-79
2022/09/25 09:08:57;;;;;;;5.85;1.42;;;11.60;99.90;;;;;;4952801;28;20553;-81
2022/09/25 09:11:47;;;;;;;6.45;1.65;;;11.60;99.90;;;;;;4970640;28;20046;-80
2022/09/25 09:14:17;;;;;;;6.60;1.42;;;11.60;99.90;;;;;;4983724;28;20046;-79
2022/09/25 09:17:10;;;;;;;4.72;1.05;;;11.70;99.90;;;;;;4956503;28;20046;-77
2022/09/25 09:19:37;;;;;;;4.53;0.98;;;11.80;99.90;;;;;;4986892;28;20046;-79
2022/09/25 09:22:10;;;;;;;2.72;0.80;;;11.80;99.90;;;;;;4967577;28;20053;-81
2022/09/25 09:25:01;;;;;;;6.50;1.02;;;11.80;99.90;;;;;;4968566;28;20038;-82
2022/09/25 09:27:42;;;;;;;5.65;1.00;;;11.90;99.90;;;;;;5038257;28;20040;-81
2022/09/25 09:30:22;;;;;;;6.15;1.20;;;11.90;99.90;;;;;;5051535;28;20045;-81
2022/09/25 09:32:52;;;;;;;5.00;1.40;;;12.00;99.90;;;;;;5062119;28;20048;-81
2022/09/25 09:35:27;;;;;;;8.55;1.45;;;11.90;99.90;;;;;;5047928;28;20049;-81
2022/09/25 09:38:33;;;;;;;10.40;1.00;;;12.10;99.90;;;;;;5043889;28;20512;-80
2022/09/25 09:41:17;;;;;;;10.80;1.17;;;12.30;99.90;;;;;;4989274;28;20046;-82
2022/09/25 09:43:53;;;;;;;5.28;0.95;;;12.40;99.90;;;;;;5003543;28;20053;-82
2022/09/25 09:46:27;;;;;;;5.75;1.10;;;12.50;99.90;;;;;;4973655;28;20072;-81
2022/09/25 09:49:22;;;;;;;5.63;1.30;;;12.60;99.90;;;;;;4987461;28;20170;-81
2022/09/25 09:52:11;;;;;;;6.35;1.02;;;12.90;99.90;;;;;;4989329;28;20076;-81
2022/09/25 09:54:51;;;;;;;6.50;1.50;;;13.10;99.90;;;;;;4971276;28;20037;-79
2022/09/25 09:57:20;;;;;;;7.90;1.30;;;13.10;99.90;;;;;;4970245;28;20062;-80
2022/09/25 09:59:55;;;;;;;6.70;1.20;;;13.30;99.90;;;;;;4989392;28;20219;-79
2022/09/25 10:02:56;;;;;;;5.50;0.98;;;13.30;99.90;;;;;;4987525;28;20331;-81
2022/09/25 10:05:40;;;;;;;4.38;1.00;;;13.40;99.90;;;;;;4949388;28;20054;-79
2022/09/25 10:08:07;;;;;;;6.30;1.20;;;13.60;99.90;;;;;;4949932;28;20049;-81
2022/09/25 10:10:35;;;;;;;4.18;1.15;;;13.60;99.90;;;;;;4963052;28;20046;-79
2022/09/25 10:13:05;;;;;;;3.08;0.85;;;13.50;99.90;;;;;;4971833;28;20490;-79
2022/09/25 10:16:03;;;;;;;7.53;1.70;;;13.70;99.90;;;;;;4942169;28;20070;-82
2022/09/25 10:18:36;;;;;;;6.28;1.55;;;13.80;99.90;;;;;;4934400;28;20059;-81
2022/09/25 10:21:17;;;;;;;5.90;1.42;;;13.80;99.90;;;;;;4920756;29;20055;-81
2022/09/25 10:23:45;;;;;;;6.05;1.23;;;13.90;99.90;;;;;;4950715;29;20039;-81
2022/09/25 10:26:27;;;;;;;6.05;1.00;;;14.00;99.90;;;;;;4935679;29;20626;-80
2022/09/25 10:28:55;;;;;;;4.38;0.90;;;14.00;99.90;;;;;;4935782;28;20188;-79
2022/09/25 10:31:21;;;;;;;6.38;0.90;;;14.00;99.90;;;;;;4937282;29;20075;-80
2022/09/25 10:34:19;;;;;;;7.18;1.10;;;14.20;99.90;;;;;;4935642;28;20086;-82
2022/09/25 10:36:50;;;;;;;8.05;1.00;;;14.20;99.90;;;;;;4935636;29;20069;-82
2022/09/25 10:39:33;;;;;;;5.13;0.90;;;14.40;99.90;;;;;;4950441;28;20039;-80
2022/09/25 10:42:01;;;;;;;5.68;0.95;;;14.40;99.90;;;;;;4955093;28;20047;-81
2022/09/25 10:44:32;;;;;;;3.90;0.70;;;14.40;99.90;;;;;;4985613;28;20037;-80
2022/09/25 10:50:18;;;;;;;4.15;0.77;;;14.80;99.90;;;;;;4983800;28;20042;-81
2022/09/25 10:52:58;;;;;;;7.05;0.90;;;14.90;99.90;;;;;;4954775;28;20041;-79
2022/09/25 10:55:36;;;;;;;3.15;0.82;;;14.90;99.90;;;;;;5045169;28;20049;-80
2022/09/25 10:58:50;;;;;;;5.43;0.80;;;14.90;99.90;;;;;;5026107;28;20043;-79
2022/09/25 11:01:16;;;;;;;6.53;0.60;;;15.10;99.90;;;;;;4960108;28;20074;-78
2022/09/25 11:03:52;;;;;;;3.70;0.63;;;15.00;99.90;;;;;;4948038;28;20121;-80
2022/09/25 11:06:25;;;;;;;1.25;0.47;;;14.90;99.90;;;;;;4970656;28;20057;-81
2022/09/25 11:09:20;;;;;;;3.47;0.50;;;14.90;99.90;;;;;;4969246;28;20104;-82
2022/09/25 11:11:48;;;;;;;1.02;0.40;;;14.80;99.90;;;;;;4934813;28;20107;-83
2022/09/25 11:14:44;;;;;;;0.95;0.30;;;14.80;99.90;;;;;;4934660;28;20055;-83
2022/09/25 11:17:30;;;;;;;2.42;0.45;;;14.80;99.90;;;;;;4923742;28;20066;-83
2022/09/25 11:20:28;;;;;;;2.42;0.73;;;14.80;99.90;;;;;;4951482;28;20095;-81
2022/09/25 11:23:28;;;;;;;4.07;0.52;;;14.70;99.90;;;;;;4936325;28;20055;-83
2022/09/25 11:26:04;;;;;;;2.45;0.60;;;14.60;99.90;;;;;;4947377;28;20093;-80
2022/09/25 11:28:34;;;;;;;2.28;0.90;;;14.60;99.90;;;;;;4950388;28;20058;-82
2022/09/25 11:31:14;;;;;;;3.72;0.70;;;14.70;99.90;;;;;;4946918;28;20066;-81
2022/09/25 11:33:50;;;;;;;4.40;0.93;;;14.90;99.90;;;;;;4946354;28;20173;-80
2022/09/25 11:36:28;;;;;;;4.57;0.90;;;15.10;99.90;;;;;;4944402;28;20861;-79
2022/09/25 11:42:06;;;;;;;5.00;0.98;;;15.20;99.90;;;;;;4978786;28;20497;-80
2022/09/25 11:44:58;;;;;;;5.47;0.70;;;15.30;99.90;;;;;;4967823;28;20489;-79
2022/09/25 11:47:44;;;;;;;5.10;0.60;;;15.30;99.90;;;;;;4989042;28;20107;-79
2022/09/25 11:50:15;;;;;;;3.50;0.73;;;15.20;99.90;;;;;;5039788;28;20080;-79
2022/09/25 11:53:06;;;;;;;5.03;0.70;;;15.20;99.90;;;;;;5049652;28;20522;-80
2022/09/25 11:55:33;;;;;;;5.40;0.98;;;15.70;99.90;;;;;;5035319;28;20143;-78
2022/09/25 11:58:25;;;;;;;7.97;1.00;;;15.50;99.90;;;;;;5039444;28;20036;-79
2022/09/25 12:01:20;;;;;;;3.92;1.02;;;15.10;99.90;;;;;;5033775;28;20124;-79
2022/09/25 12:03:50;;;;;;;2.03;0.55;;;14.80;99.90;;;;;;5073071;28;20047;-81
2022/09/25 12:06:46;;;;;;;4.90;1.00;;;14.80;99.90;;;;;;5058068;28;20089;-81
2022/09/25 12:09:37;;;;;;;4.22;1.00;;;15.10;99.90;;;;;;5035606;28;20044;-77
2022/09/25 12:12:08;;;;;;;8.13;1.13;;;15.20;99.90;;;;;;5038209;28;20407;-79
2022/09/25 12:14:52;;;;;;;5.43;0.90;;;15.10;99.90;;;;;;5041500;28;20052;-80
2022/09/25 12:17:35;;;;;;;5.03;0.93;;;14.70;99.90;;;;;;5049051;28;20105;-78
2022/09/25 12:20:38;;;;;;;5.40;1.10;;;14.70;99.90;;;;;;5045791;28;20469;-79
2022/09/25 12:23:36;;;;;;;1.95;0.73;;;14.80;99.90;;;;;;5078995;28;20044;-78
2022/09/25 12:26:25;;;;;;;4.18;0.55;;;15.10;99.90;;;;;;5063047;28;20395;-79
2022/09/25 12:29:02;;;;;;;4.65;0.88;;;15.50;99.90;;;;;;5072099;28;20437;-79
2022/09/25 12:31:56;;;;;;;4.80;0.70;;;15.40;99.90;;;;;;5067773;28;20167;-79
2022/09/25 12:34:51;;;;;;;2.70;0.68;;;15.50;99.90;;;;;;5079212;28;20036;-79
2022/09/25 12:37:42;;;;;;;4.93;0.65;;;15.30;99.90;;;;;;5072390;28;20044;-79
2022/09/25 12:40:42;;;;;;;1.75;0.50;;;15.00;99.90;;;;;;5041319;28;20464;-80
2022/09/25 12:43:10;;;;;;;4.43;0.77;;;15.10;99.90;;;;;;5061561;28;20056;-79
2022/09/25 12:45:48;;;;;;;4.15;0.80;;;15.00;99.90;;;;;;5074932;28;20510;-78
2022/09/25 12:48:36;;;;;;;5.20;0.55;;;15.10;99.90;;;;;;5062878;28;20040;-79
2022/09/25 12:51:26;;;;;;;6.88;0.82;;;15.30;99.90;;;;;;5067898;28;20532;-78
2022/09/25 12:53:59;;;;;;;3.60;0.77;;;15.30;99.90;;;;;;5070266;28;20101;-78
2022/09/25 12:56:35;;;;;;;6.25;1.00;;;15.10;99.90;;;;;;5054762;28;20507;-77
2022/09/25 12:59:14;;;;;;;2.33;0.50;;;15.20;99.90;;;;;;5039283;28;20044;-80
2022/09/25 13:02:06;;;;;;;5.25;1.10;;;15.20;99.90;;;;;;5074230;28;20039;-77
2022/09/25 13:04:41;;;;;;;6.15;0.90;;;15.30;99.90;;;;;;5073637;28;20044;-79
2022/09/25 13:07:15;;;;;;;5.28;0.70;;;15.30;99.90;;;;;;5076593;28;20048;-79
2022/09/25 13:09:44;;;;;;;3.15;0.70;;;15.40;99.90;;;;;;5061938;28;20409;-79
2022/09/25 13:12:38;;;;;;;4.18;1.08;;;15.30;99.90;;;;;;5043820;28;20128;-77
2022/09/25 13:15:15;;;;;;;5.97;0.73;;;15.60;99.90;;;;;;5084823;28;20081;-79
2022/09/25 13:17:41;;;;;;;2.15;0.57;;;15.60;99.90;;;;;;5074972;28;20113;-80
2022/09/25 13:20:25;;;;;;;4.38;0.77;;;15.60;99.90;;;;;;5074955;28;20378;-78
2022/09/25 13:22:56;;;;;;;6.75;1.00;;;15.60;99.90;;;;;;5085228;28;20394;-78
2022/09/25 13:25:23;;;;;;;3.55;0.60;;;15.70;99.90;;;;;;5055766;28;20483;-79
2022/09/25 13:27:52;;;;;;;7.25;0.90;;;15.70;99.90;;;;;;5068856;28;20036;-79
2022/09/25 13:30:25;;;;;;;2.28;0.60;;;15.80;99.90;;;;;;5051300;28;20128;-81
2022/09/25 13:32:53;;;;;;;4.55;0.82;;;15.80;99.90;;;;;;5061276;28;20039;-78
2022/09/25 13:35:21;;;;;;;4.88;0.90;;;15.90;99.90;;;;;;5049164;28;20048;-79
2022/09/25 13:37:50;;;;;;;3.97;0.70;;;15.80;99.90;;;;;;5065853;28;20108;-82
2022/09/25 13:40:44;;;;;;;4.97;0.70;;;15.70;99.90;;;;;;5035454;28;20048;-78
2022/09/25 13:43:27;;;;;;;5.22;0.85;;;15.40;99.90;;;;;;5051964;28;20071;-81
2022/09/25 13:46:16;;;;;;;4.55;0.82;;;15.40;99.90;;;;;;5072101;28;20040;-80
2022/09/25 13:48:42;;;;;;;4.45;0.70;;;15.60;99.90;;;;;;5063043;28;20145;-80